createdAt,value
2022-10-02T00:00:16.968Z,82.80
2022-10-02T00:00:55.413Z,83.45
2022-10-02T00:01:33.767Z,84.33
2022-10-02T00:02:16.304Z,84.44
2022-10-02T00:02:54.431Z,84.68
2022-10-02T00:03:32.405Z,84.20
2022-10-02T00:04:08.862Z,84.61
2022-10-02T00:04:47.866Z,84.63
2022-10-02T00:05:24.530Z,84.80
2022-10-02T00:06:06.617Z,84.96
2022-10-02T00:06:44.673Z,84.92
2022-10-02T00:07:22.283Z,84.60
2022-10-02T00:08:02.279Z,84.48
2022-10-02T00:08:39.157Z,84.70
2022-10-02T00:09:22.479Z,84.42
2022-10-02T00:10:00.194Z,84.66
2022-10-02T00:10:36.233Z,84.60
2022-10-02T00:11:15.693Z,84.36
2022-10-02T00:11:50.888Z,84.59
2022-10-02T00:12:29.192Z,84.27
2022-10-02T00:13:05.023Z,84.43
2022-10-02T00:13:41.523Z,84.55
2022-10-02T00:14:20.733Z,84.22
2022-10-02T00:14:58.225Z,84.05
2022-10-02T00:15:37.431Z,83.94
2022-10-02T00:16:19.906Z,84.20
2022-10-02T00:16:55.710Z,83.89
2022-10-02T00:17:36.229Z,84.30
2022-10-02T00:18:12.715Z,84.12
2022-10-02T00:18:48.043Z,83.84
2022-10-02T00:19:23.109Z,83.70
2022-10-02T00:19:56.300Z,83.56
2022-10-02T00:20:38.115Z,83.85
2022-10-02T00:21:23.506Z,83.78
2022-10-02T00:22:10.948Z,83.82
2022-10-02T00:22:53.902Z,83.39
2022-10-02T00:23:32.668Z,83.42
2022-10-02T00:24:08.086Z,83.47
2022-10-02T00:24:51.091Z,83.70
2022-10-02T00:25:29.166Z,83.91
2022-10-02T00:26:06.610Z,83.93
2022-10-02T00:26:46.749Z,83.72
2022-10-02T00:27:38.935Z,83.59
2022-10-02T00:28:22.689Z,83.91
2022-10-02T00:29:05.879Z,83.85
2022-10-02T00:29:46.202Z,83.50
2022-10-02T00:30:21.459Z,83.75
2022-10-02T00:31:24.293Z,83.59
2022-10-02T00:32:19.770Z,83.75
2022-10-02T00:33:05.049Z,84.00
2022-10-02T00:33:51.423Z,83.85
2022-10-02T00:34:33.899Z,83.62
2022-10-02T00:35:43.595Z,83.73
2022-10-02T00:36:27.784Z,83.78
2022-10-02T00:37:09.622Z,83.90
2022-10-02T00:37:47.016Z,83.63
2022-10-02T00:38:33.567Z,83.74
2022-10-02T00:39:19.578Z,83.63
2022-10-02T00:40:03.675Z,83.51
2022-10-02T00:41:04.301Z,83.41
2022-10-02T00:42:06.562Z,83.39
2022-10-02T00:42:58.582Z,83.65
2022-10-02T00:43:39.229Z,83.44
2022-10-02T00:44:24.105Z,83.34
2022-10-02T00:45:21.803Z,83.50
2022-10-02T00:46:31.608Z,83.70
2022-10-02T00:47:15.846Z,83.43
2022-10-02T00:47:54.939Z,83.41
2022-10-02T00:48:47.308Z,83.38
2022-10-02T00:49:35.907Z,83.42
2022-10-02T00:50:24.514Z,83.03
2022-10-02T00:51:09.701Z,83.20
2022-10-02T00:51:52.841Z,83.37
2022-10-02T00:52:44.095Z,83.36
2022-10-02T00:53:29.786Z,83.36
2022-10-02T00:54:18.323Z,83.28
2022-10-02T00:55:16.314Z,83.26
2022-10-02T00:56:11.858Z,83.08
2022-10-02T00:56:53.244Z,83.11
2022-10-02T00:57:41.854Z,83.46
2022-10-02T00:58:31.550Z,83.32
2022-10-02T00:59:38.628Z,83.19
2022-10-02T01:00:13.734Z,83.44
2022-10-02T01:00:55.185Z,82.95
2022-10-02T01:01:38.020Z,83.26
2022-10-02T01:02:14.145Z,83.31
2022-10-02T01:03:09.074Z,83.30
2022-10-02T01:03:45.030Z,83.13
2022-10-02T01:04:25.267Z,83.15
2022-10-02T01:04:58.883Z,83.22
2022-10-02T01:05:33.873Z,83.17
2022-10-02T01:06:06.681Z,83.29
2022-10-02T01:06:38.978Z,83.31
2022-10-02T01:07:15.795Z,83.11
2022-10-02T01:07:51.612Z,82.92
2022-10-02T01:08:23.682Z,83.18
2022-10-02T01:08:58.785Z,83.19
2022-10-02T01:09:31.549Z,83.28
2022-10-02T01:10:07.637Z,83.13
2022-10-02T01:10:42.830Z,83.58
2022-10-02T01:11:14.951Z,83.48
2022-10-02T01:11:47.019Z,83.06
2022-10-02T01:12:21.681Z,83.15
2022-10-02T01:12:55.266Z,83.30
2022-10-02T01:13:27.566Z,83.27
2022-10-02T01:14:02.251Z,83.11
2022-10-02T01:14:35.789Z,83.14
2022-10-02T01:15:12.482Z,83.12
2022-10-02T01:15:52.983Z,83.16
2022-10-02T01:16:25.217Z,83.27
2022-10-02T01:16:57.440Z,83.46
2022-10-02T01:17:35.996Z,83.14
2022-10-02T01:18:10.313Z,83.32
2022-10-02T01:18:48.179Z,83.15
2022-10-02T01:19:29.281Z,83.84
2022-10-02T01:20:04.984Z,83.43
2022-10-02T01:20:42.388Z,83.61
2022-10-02T01:21:21.693Z,83.60
2022-10-02T01:21:59.292Z,83.92
2022-10-02T01:22:40.777Z,83.75
2022-10-02T01:23:20.610Z,83.45
2022-10-02T01:24:03.350Z,84.04
2022-10-02T01:24:46.660Z,83.80
2022-10-02T01:25:18.778Z,83.92
2022-10-02T01:25:53.982Z,83.97
2022-10-02T01:26:26.130Z,83.64
2022-10-02T01:26:58.794Z,83.82
2022-10-02T01:27:35.450Z,84.04
2022-10-02T01:28:14.007Z,83.88
2022-10-02T01:28:46.315Z,83.66
2022-10-02T01:29:18.415Z,84.07
2022-10-02T01:29:57.330Z,84.07
2022-10-02T01:30:31.618Z,83.69
2022-10-02T01:31:11.189Z,83.85
2022-10-02T01:31:43.591Z,83.90
2022-10-02T01:32:17.062Z,84.05
2022-10-02T01:32:54.692Z,84.01
2022-10-02T01:33:26.838Z,83.75
2022-10-02T01:34:00.030Z,84.04
2022-10-02T01:34:34.995Z,84.02
2022-10-02T01:35:08.346Z,83.75
2022-10-02T01:35:40.751Z,83.81
2022-10-02T01:36:17.831Z,84.15
2022-10-02T01:36:50.084Z,84.24
2022-10-02T01:37:24.613Z,84.09
2022-10-02T01:37:59.341Z,83.94
2022-10-02T01:38:31.798Z,83.95
2022-10-02T01:39:04.199Z,83.96
2022-10-02T01:39:39.898Z,83.76
2022-10-02T01:40:24.919Z,84.08
2022-10-02T01:40:59.795Z,83.92
2022-10-02T01:41:35.359Z,84.29
2022-10-02T01:42:07.503Z,84.11
2022-10-02T01:42:43.014Z,83.84
2022-10-02T01:43:19.459Z,83.94
2022-10-02T01:43:58.446Z,84.27
2022-10-02T01:44:30.919Z,84.16
2022-10-02T01:45:04.951Z,84.01
2022-10-02T01:45:56.693Z,84.09
2022-10-02T01:46:33.187Z,83.93
2022-10-02T01:47:11.775Z,84.25
2022-10-02T01:47:52.009Z,84.33
2022-10-02T01:48:38.748Z,84.27
2022-10-02T01:49:34.710Z,84.14
2022-10-02T01:50:17.714Z,84.15
2022-10-02T01:51:04.070Z,84.55
2022-10-02T01:51:56.995Z,84.30
2022-10-02T01:52:43.487Z,84.48
2022-10-02T01:53:26.749Z,84.35
2022-10-02T01:54:10.642Z,84.51
2022-10-02T01:54:57.901Z,84.54
2022-10-02T01:55:43.513Z,84.52
2022-10-02T01:56:21.960Z,85.01
2022-10-02T01:57:08.602Z,84.46
2022-10-02T01:57:52.995Z,84.75
2022-10-02T01:58:36.422Z,84.77
2022-10-02T01:59:20.617Z,84.87
2022-10-02T02:00:06.014Z,84.81
2022-10-02T02:01:00.460Z,84.82
2022-10-02T02:01:44.185Z,84.59
2022-10-02T02:02:29.142Z,84.35
2022-10-02T02:03:13.492Z,84.47
2022-10-02T02:03:53.653Z,84.48
2022-10-02T02:04:32.404Z,84.36
2022-10-02T02:05:10.485Z,84.38
2022-10-02T02:05:48.143Z,84.40
2022-10-02T02:06:32.816Z,84.57
2022-10-02T02:07:14.381Z,84.86
2022-10-02T02:07:51.144Z,84.85
2022-10-02T02:08:32.670Z,84.58
2022-10-02T02:09:09.919Z,84.48
2022-10-02T02:09:49.180Z,84.65
2022-10-02T02:10:26.247Z,84.48
2022-10-02T02:11:10.493Z,84.39
2022-10-02T02:11:55.396Z,84.09
2022-10-02T02:12:37.886Z,84.52
2022-10-02T02:13:16.425Z,84.28
2022-10-02T02:13:53.877Z,84.12
2022-10-02T02:14:30.284Z,84.04
2022-10-02T02:15:07.563Z,84.08
2022-10-02T02:15:49.238Z,84.18
2022-10-02T02:16:27.005Z,84.33
2022-10-02T02:17:11.513Z,83.94
2022-10-02T02:17:50.961Z,83.95
2022-10-02T02:18:29.202Z,83.96
2022-10-02T02:19:08.196Z,84.05
2022-10-02T02:19:45.612Z,83.81
2022-10-02T02:20:21.019Z,83.81
2022-10-02T02:21:01.760Z,84.38
2022-10-02T02:21:36.449Z,83.90
2022-10-02T02:22:16.775Z,83.81
2022-10-02T02:22:50.018Z,84.08
2022-10-02T02:23:26.826Z,84.30
2022-10-02T02:24:06.555Z,84.17
2022-10-02T02:24:42.852Z,84.30
2022-10-02T02:25:18.814Z,84.07
2022-10-02T02:25:57.153Z,84.12
2022-10-02T02:26:33.548Z,83.95
2022-10-02T02:27:07.869Z,84.42
2022-10-02T02:27:46.023Z,84.33
2022-10-02T02:28:21.730Z,84.32
2022-10-02T02:29:00.512Z,84.06
2022-10-02T02:29:38.721Z,83.86
2022-10-02T02:30:13.602Z,84.13
2022-10-02T02:30:49.657Z,84.03
2022-10-02T02:31:27.340Z,83.97
2022-10-02T02:32:03.152Z,84.00
2022-10-02T02:32:39.262Z,83.74
2022-10-02T02:33:19.204Z,83.91
2022-10-02T02:33:56.401Z,83.83
2022-10-02T02:34:31.991Z,84.28
2022-10-02T02:35:11.664Z,84.11
2022-10-02T02:35:47.963Z,84.13
2022-10-02T02:36:26.273Z,83.83
2022-10-02T02:37:07.584Z,83.57
2022-10-02T02:37:42.880Z,83.77
2022-10-02T02:38:21.775Z,83.91
2022-10-02T02:39:03.581Z,84.10
2022-10-02T02:39:42.534Z,83.94
2022-10-02T02:40:17.360Z,83.79
2022-10-02T02:40:53.430Z,83.74
2022-10-02T02:41:28.480Z,83.58
2022-10-02T02:42:07.010Z,83.84
2022-10-02T02:42:44.948Z,83.76
2022-10-02T02:43:21.892Z,83.93
2022-10-02T02:43:59.116Z,83.82
2022-10-02T02:44:39.178Z,83.41
2022-10-02T02:45:14.843Z,83.75
2022-10-02T02:45:52.103Z,83.65
2022-10-02T02:46:35.136Z,83.66
2022-10-02T02:47:12.932Z,83.71
2022-10-02T02:47:50.970Z,83.48
2022-10-02T02:48:29.371Z,83.20
2022-10-02T02:49:09.783Z,83.28
2022-10-02T02:49:47.633Z,83.30
2022-10-02T02:50:28.107Z,83.33
2022-10-02T02:51:08.542Z,83.35
2022-10-02T02:51:43.117Z,83.64
2022-10-02T02:52:22.861Z,83.38
2022-10-02T02:53:00.782Z,83.36
2022-10-02T02:53:38.836Z,83.33
2022-10-02T02:54:18.189Z,83.45
2022-10-02T02:54:54.637Z,83.33
2022-10-02T02:55:35.141Z,83.19
2022-10-02T02:56:13.518Z,83.00
2022-10-02T02:56:47.261Z,83.50
2022-10-02T02:57:31.443Z,83.46
2022-10-02T02:58:09.835Z,83.07
2022-10-02T02:58:47.532Z,83.26
2022-10-02T02:59:24.910Z,83.11
2022-10-02T03:00:01.370Z,83.18
2022-10-02T03:00:36.686Z,83.16
2022-10-02T03:01:09.013Z,82.90
2022-10-02T03:01:42.089Z,82.93
2022-10-02T03:02:16.833Z,82.75
2022-10-02T03:02:50.747Z,82.74
2022-10-02T03:03:22.918Z,82.86
2022-10-02T03:03:57.748Z,83.19
2022-10-02T03:04:29.867Z,82.97
2022-10-02T03:05:02.076Z,82.73
2022-10-02T03:05:38.908Z,82.93
2022-10-02T03:06:31.692Z,82.81
2022-10-02T03:07:05.356Z,82.83
2022-10-02T03:07:40.101Z,82.99
2022-10-02T03:08:18.852Z,82.99
2022-10-02T03:08:52.771Z,82.67
2022-10-02T03:09:30.127Z,82.85
2022-10-02T03:10:16.178Z,82.62
2022-10-02T03:11:01.320Z,82.95
2022-10-02T03:11:53.116Z,83.08
2022-10-02T03:12:41.571Z,82.56
2022-10-02T03:13:30.826Z,82.49
2022-10-02T03:14:12.781Z,82.72
2022-10-02T03:15:11.994Z,82.43
2022-10-02T03:15:55.648Z,82.56
2022-10-02T03:16:39.818Z,82.39
2022-10-02T03:17:24.811Z,82.75
2022-10-02T03:18:17.427Z,82.81
2022-10-02T03:19:05.275Z,82.81
2022-10-02T03:19:46.576Z,82.67
2022-10-02T03:20:31.694Z,82.88
2022-10-02T03:21:12.552Z,82.62
2022-10-02T03:21:57.994Z,82.67
2022-10-02T03:22:43.200Z,82.96
2022-10-02T03:23:23.065Z,82.56
2022-10-02T03:24:01.840Z,82.72
2022-10-02T03:24:44.088Z,82.75
2022-10-02T03:25:22.121Z,82.77
2022-10-02T03:26:00.522Z,82.70
2022-10-02T03:26:41.199Z,82.36
2022-10-02T03:27:19.442Z,82.66
2022-10-02T03:28:01.095Z,82.13
2022-10-02T03:28:56.732Z,82.51
2022-10-02T03:29:35.385Z,82.62
2022-10-02T03:30:12.720Z,82.37
2022-10-02T03:30:46.852Z,82.67
2022-10-02T03:31:21.026Z,82.67
2022-10-02T03:31:57.459Z,82.56
2022-10-02T03:32:32.270Z,82.48
2022-10-02T03:33:06.076Z,82.47
2022-10-02T03:33:41.497Z,82.40
2022-10-02T03:34:14.081Z,82.83
2022-10-02T03:34:48.110Z,82.42
2022-10-02T03:35:24.578Z,82.35
2022-10-02T03:35:57.125Z,82.18
2022-10-02T03:36:32.751Z,82.21
2022-10-02T03:37:05.378Z,82.02
2022-10-02T03:37:39.437Z,82.47
2022-10-02T03:38:16.343Z,82.20
2022-10-02T03:38:57.022Z,82.01
2022-10-02T03:39:40.874Z,82.32
2022-10-02T03:40:15.885Z,82.13
2022-10-02T03:40:48.074Z,82.37
2022-10-02T03:41:20.161Z,82.01
2022-10-02T03:41:54.890Z,82.45
2022-10-02T03:42:29.517Z,82.21
2022-10-02T03:43:07.302Z,82.27
2022-10-02T03:43:39.398Z,82.27
2022-10-02T03:44:11.490Z,81.93
2022-10-02T03:44:46.657Z,82.51
2022-10-02T03:45:39.021Z,82.12
2022-10-02T03:46:14.246Z,82.35
2022-10-02T03:46:46.430Z,82.07
2022-10-02T03:47:18.587Z,81.96
2022-10-02T03:47:53.257Z,82.42
2022-10-02T03:48:25.403Z,82.06
2022-10-02T03:48:57.553Z,82.46
2022-10-02T03:49:32.298Z,82.29
2022-10-02T03:50:05.187Z,81.91
2022-10-02T03:50:37.522Z,81.86
2022-10-02T03:51:12.172Z,81.93
2022-10-02T03:51:44.432Z,82.50
2022-10-02T03:52:21.463Z,82.05
2022-10-02T03:52:53.765Z,82.33
2022-10-02T03:53:31.002Z,82.29
2022-10-02T03:54:06.302Z,82.30
2022-10-02T03:54:38.665Z,82.29
2022-10-02T03:55:25.062Z,81.98
2022-10-02T03:56:06.273Z,81.87
2022-10-02T03:56:43.099Z,81.69
2022-10-02T03:57:20.162Z,82.06
2022-10-02T03:57:56.567Z,81.80
2022-10-02T03:58:33.224Z,81.93
2022-10-02T03:59:12.613Z,82.50
2022-10-02T03:59:53.810Z,82.07
2022-10-02T04:00:32.267Z,82.28
2022-10-02T04:01:10.951Z,82.38
2022-10-02T04:01:51.443Z,82.17
2022-10-02T04:02:32.030Z,82.28
2022-10-02T04:03:10.777Z,82.03
2022-10-02T04:03:50.041Z,81.95
2022-10-02T04:04:25.624Z,82.07
2022-10-02T04:05:07.259Z,82.05
2022-10-02T04:05:43.674Z,82.11
2022-10-02T04:06:23.671Z,81.71
2022-10-02T04:07:01.731Z,82.01
2022-10-02T04:07:38.699Z,82.20
2022-10-02T04:08:19.442Z,81.73
2022-10-02T04:08:58.406Z,81.81
2022-10-02T04:09:37.542Z,81.66
2022-10-02T04:10:29.822Z,82.08
2022-10-02T04:11:11.157Z,82.28
2022-10-02T04:11:48.448Z,82.00
2022-10-02T04:12:27.267Z,82.01
2022-10-02T04:13:10.283Z,82.29
2022-10-02T04:13:49.099Z,82.13
2022-10-02T04:14:28.513Z,81.87
2022-10-02T04:15:06.961Z,81.81
2022-10-02T04:15:53.922Z,81.91
2022-10-02T04:16:34.582Z,82.48
2022-10-02T04:17:13.690Z,82.27
2022-10-02T04:17:50.046Z,81.84
2022-10-02T04:18:30.737Z,82.28
2022-10-02T04:19:07.631Z,82.05
2022-10-02T04:19:42.966Z,82.28
2022-10-02T04:20:21.311Z,82.41
2022-10-02T04:20:58.530Z,82.28
2022-10-02T04:21:38.748Z,82.21
2022-10-02T04:22:21.323Z,82.78
2022-10-02T04:22:56.636Z,82.94
2022-10-02T04:23:34.469Z,82.54
2022-10-02T04:24:18.893Z,82.77
2022-10-02T04:24:57.620Z,82.74
2022-10-02T04:25:37.262Z,82.61
2022-10-02T04:26:17.776Z,82.77
2022-10-02T04:27:05.334Z,82.62
2022-10-02T04:27:40.872Z,82.37
2022-10-02T04:28:15.466Z,82.35
2022-10-02T04:28:59.805Z,82.42
2022-10-02T04:29:38.830Z,82.27
2022-10-02T04:30:13.067Z,82.43
2022-10-02T04:30:47.750Z,82.21
2022-10-02T04:31:19.984Z,82.64
2022-10-02T04:32:01.256Z,82.15
2022-10-02T04:32:37.923Z,82.15
2022-10-02T04:33:12.842Z,82.77
2022-10-02T04:33:44.951Z,82.29
2022-10-02T04:34:19.606Z,82.28
2022-10-02T04:34:52.358Z,82.43
2022-10-02T04:35:32.541Z,82.41
2022-10-02T04:36:15.662Z,82.51
2022-10-02T04:37:04.252Z,82.14
2022-10-02T04:38:02.507Z,82.31
2022-10-02T04:38:49.269Z,82.18
2022-10-02T04:39:50.677Z,82.58
2022-10-02T04:40:34.070Z,82.77
2022-10-02T04:41:22.824Z,82.56
2022-10-02T04:42:24.999Z,82.47
2022-10-02T04:43:13.257Z,83.13
2022-10-02T04:44:02.346Z,82.73
2022-10-02T04:44:57.192Z,83.00
2022-10-02T04:45:41.846Z,82.71
2022-10-02T04:46:25.854Z,83.13
2022-10-02T04:47:15.803Z,83.09
2022-10-02T04:48:16.013Z,82.71
2022-10-02T04:49:23.299Z,83.20
2022-10-02T04:50:08.746Z,83.32
2022-10-02T04:50:48.597Z,82.93
2022-10-02T04:51:37.233Z,83.19
2022-10-02T04:52:27.195Z,83.00
2022-10-02T04:53:21.985Z,82.91
2022-10-02T04:54:15.565Z,82.95
2022-10-02T04:55:04.725Z,83.27
2022-10-02T04:56:14.680Z,83.19
2022-10-02T04:57:05.460Z,83.06
2022-10-02T04:57:56.539Z,82.98
2022-10-02T04:58:48.441Z,82.73
2022-10-02T04:59:36.038Z,82.93
2022-10-02T05:00:14.662Z,83.22
2022-10-02T05:00:54.978Z,83.18
2022-10-02T05:01:31.874Z,83.22
2022-10-02T05:02:22.932Z,83.03
2022-10-02T05:03:17.282Z,83.14
2022-10-02T05:04:09.016Z,83.10
2022-10-02T05:05:00.730Z,82.75
2022-10-02T05:05:51.501Z,82.68
2022-10-02T05:06:41.999Z,82.90
2022-10-02T05:07:33.033Z,82.89
2022-10-02T05:08:24.928Z,83.29
2022-10-02T05:09:14.816Z,82.73
2022-10-02T05:10:01.924Z,83.13
2022-10-02T05:10:56.717Z,83.01
2022-10-02T05:11:50.262Z,82.61
2022-10-02T05:12:46.721Z,82.84
2022-10-02T05:13:34.929Z,83.12
2022-10-02T05:14:26.460Z,83.08
2022-10-02T05:15:16.927Z,83.14
2022-10-02T05:16:04.374Z,82.71
2022-10-02T05:16:56.333Z,83.25
2022-10-02T05:17:47.660Z,82.85
2022-10-02T05:18:37.316Z,82.73
2022-10-02T05:19:26.144Z,82.60
2022-10-02T05:20:19.098Z,83.13
2022-10-02T05:21:15.437Z,83.01
2022-10-02T05:22:22.347Z,83.25
2022-10-02T05:23:22.750Z,83.28
2022-10-02T05:24:09.706Z,83.10
2022-10-02T05:24:57.156Z,82.89
2022-10-02T05:26:06.540Z,83.07
2022-10-02T05:27:06.402Z,83.52
2022-10-02T05:27:56.740Z,83.50
2022-10-02T05:28:59.914Z,83.11
2022-10-02T05:29:55.931Z,83.35
2022-10-02T05:30:35.904Z,83.66
2022-10-02T05:31:20.854Z,83.46
2022-10-02T05:32:05.974Z,83.14
2022-10-02T05:33:02.123Z,83.45
2022-10-02T05:33:51.834Z,83.12
2022-10-02T05:34:40.914Z,83.31
2022-10-02T05:35:28.672Z,83.37
2022-10-02T05:36:24.792Z,83.05
2022-10-02T05:37:10.471Z,82.91
2022-10-02T05:37:56.476Z,83.32
2022-10-02T05:38:47.327Z,82.99
2022-10-02T05:39:28.593Z,83.60
2022-10-02T05:40:08.381Z,83.53
2022-10-02T05:40:49.061Z,83.53
2022-10-02T05:41:27.826Z,83.07
2022-10-02T05:42:08.947Z,83.50
2022-10-02T05:42:49.585Z,83.37
2022-10-02T05:43:33.350Z,83.67
2022-10-02T05:44:12.683Z,83.41
2022-10-02T05:44:53.502Z,83.60
2022-10-02T05:45:31.335Z,83.84
2022-10-02T05:46:11.184Z,83.79
2022-10-02T05:46:49.429Z,83.85
2022-10-02T05:47:28.277Z,84.15
2022-10-02T05:48:09.150Z,84.06
2022-10-02T05:48:45.173Z,83.93
2022-10-02T05:49:20.796Z,84.51
2022-10-02T05:50:01.692Z,84.52
2022-10-02T05:50:37.015Z,84.73
2022-10-02T05:51:16.668Z,84.65
2022-10-02T05:51:59.665Z,84.42
2022-10-02T05:52:38.321Z,84.41
2022-10-02T05:53:26.123Z,84.22
2022-10-02T05:54:04.863Z,84.36
2022-10-02T05:54:45.542Z,84.78
2022-10-02T05:55:26.449Z,84.57
2022-10-02T05:56:02.556Z,84.89
2022-10-02T05:56:42.786Z,85.04
2022-10-02T05:57:22.203Z,84.80
2022-10-02T05:58:04.297Z,84.92
2022-10-02T05:58:42.364Z,85.00
2022-10-02T05:59:22.935Z,85.24
2022-10-02T06:00:07.597Z,85.44
2022-10-02T06:00:52.170Z,85.47
2022-10-02T06:01:30.675Z,85.55
2022-10-02T06:02:14.492Z,85.61
2022-10-02T06:02:57.278Z,86.40
2022-10-02T06:03:38.884Z,86.27
2022-10-02T06:04:15.230Z,86.43
2022-10-02T06:04:57.383Z,86.34
2022-10-02T06:05:44.218Z,86.41
2022-10-02T06:06:18.624Z,86.91
2022-10-02T06:06:56.110Z,86.52
2022-10-02T06:07:29.490Z,86.87
2022-10-02T06:08:04.374Z,87.07
2022-10-02T06:08:44.494Z,86.79
2022-10-02T06:09:20.394Z,87.23
2022-10-02T06:09:59.428Z,87.33
2022-10-02T06:10:38.800Z,87.02
2022-10-02T06:11:17.961Z,87.49
2022-10-02T06:11:55.511Z,87.01
2022-10-02T06:12:36.550Z,87.38
2022-10-02T06:13:13.879Z,87.23
2022-10-02T06:13:53.559Z,87.68
2022-10-02T06:14:32.432Z,87.62
2022-10-02T06:15:08.567Z,87.90
2022-10-02T06:15:49.489Z,87.43
2022-10-02T06:16:27.381Z,87.41
2022-10-02T06:17:08.389Z,87.47
2022-10-02T06:17:47.986Z,87.74
2022-10-02T06:18:25.505Z,87.96
2022-10-02T06:19:03.206Z,87.85
2022-10-02T06:19:43.523Z,87.68
2022-10-02T06:20:19.835Z,87.83
2022-10-02T06:20:58.652Z,88.13
2022-10-02T06:21:36.414Z,87.82
2022-10-02T06:22:16.665Z,88.17
2022-10-02T06:22:54.092Z,88.08
2022-10-02T06:23:31.921Z,88.18
2022-10-02T06:24:13.890Z,88.24
2022-10-02T06:24:51.687Z,88.15
2022-10-02T06:25:33.260Z,88.16
2022-10-02T06:26:10.785Z,88.42
2022-10-02T06:26:51.379Z,88.57
2022-10-02T06:27:31.888Z,88.66
2022-10-02T06:28:17.090Z,88.86
2022-10-02T06:28:52.228Z,89.15
2022-10-02T06:29:31.574Z,89.32
2022-10-02T06:30:06.281Z,89.06
2022-10-02T06:30:42.860Z,89.13
2022-10-02T06:31:24.292Z,89.17
2022-10-02T06:32:12.662Z,89.45
2022-10-02T06:32:54.513Z,89.16
2022-10-02T06:33:30.942Z,89.21
2022-10-02T06:34:03.219Z,89.50
2022-10-02T06:34:38.118Z,88.92
2022-10-02T06:35:13.681Z,88.88
2022-10-02T06:36:16.823Z,89.29
2022-10-02T06:37:08.346Z,89.27
2022-10-02T06:37:56.782Z,89.30
2022-10-02T06:38:39.539Z,89.30
2022-10-02T06:39:35.441Z,88.96
2022-10-02T06:40:33.889Z,89.33
2022-10-02T06:41:20.570Z,88.83
2022-10-02T06:42:07.625Z,88.91
2022-10-02T06:42:51.026Z,89.31
2022-10-02T06:44:01.605Z,89.26
2022-10-02T06:44:40.753Z,88.92
2022-10-02T06:45:23.486Z,89.14
2022-10-02T06:46:08.405Z,88.71
2022-10-02T06:46:52.477Z,89.34
2022-10-02T06:47:42.901Z,89.08
2022-10-02T06:48:24.925Z,88.74
2022-10-02T06:49:04.931Z,88.82
2022-10-02T06:49:47.315Z,88.96
2022-10-02T06:50:35.593Z,89.04
2022-10-02T06:51:18.627Z,88.83
2022-10-02T06:52:02.033Z,88.71
2022-10-02T06:52:45.568Z,88.60
2022-10-02T06:53:45.334Z,88.65
2022-10-02T06:54:34.662Z,88.98
2022-10-02T06:55:31.231Z,88.59
2022-10-02T06:56:25.915Z,88.74
2022-10-02T06:57:14.203Z,88.88
2022-10-02T06:58:05.025Z,88.73
2022-10-02T06:58:53.202Z,88.66
2022-10-02T06:59:41.038Z,88.57
2022-10-02T07:00:19.526Z,88.33
2022-10-02T07:00:59.364Z,88.49
2022-10-02T07:01:46.980Z,88.21
2022-10-02T07:02:42.869Z,88.28
2022-10-02T07:03:37.835Z,88.38
2022-10-02T07:04:56.999Z,88.88
2022-10-02T07:05:53.432Z,89.04
2022-10-02T07:06:55.095Z,89.00
2022-10-02T07:07:40.335Z,88.72
2022-10-02T07:08:27.854Z,88.64
2022-10-02T07:09:35.037Z,88.53
2022-10-02T07:10:33.022Z,88.72
2022-10-02T07:11:16.043Z,88.90
2022-10-02T07:11:56.886Z,89.04
2022-10-02T07:12:56.823Z,88.50
2022-10-02T07:13:45.233Z,88.75
2022-10-02T07:14:33.528Z,88.83
2022-10-02T07:15:23.857Z,88.37
2022-10-02T07:16:19.700Z,88.97
2022-10-02T07:17:06.978Z,88.86
2022-10-02T07:17:57.421Z,88.57
2022-10-02T07:18:42.801Z,88.59
2022-10-02T07:19:40.949Z,89.13
2022-10-02T07:20:34.247Z,89.30
2022-10-02T07:21:17.612Z,89.16
2022-10-02T07:22:00.103Z,89.21
2022-10-02T07:22:45.717Z,89.27
2022-10-02T07:23:45.972Z,89.14
2022-10-02T07:24:31.218Z,89.27
2022-10-02T07:25:23.302Z,89.03
2022-10-02T07:26:10.667Z,88.80
2022-10-02T07:26:49.701Z,88.90
2022-10-02T07:27:29.965Z,88.78
2022-10-02T07:28:11.415Z,88.75
2022-10-02T07:28:50.841Z,89.31
2022-10-02T07:29:36.084Z,89.42
2022-10-02T07:30:11.971Z,89.50
2022-10-02T07:30:54.222Z,89.45
2022-10-02T07:31:41.841Z,89.65
2022-10-02T07:32:39.126Z,89.77
2022-10-02T07:33:30.090Z,89.60
2022-10-02T07:34:13.221Z,89.85
2022-10-02T07:34:56.222Z,90.27
2022-10-02T07:35:44.000Z,89.83
2022-10-02T07:36:29.484Z,90.16
2022-10-02T07:37:14.850Z,89.84
2022-10-02T07:38:01.735Z,90.08
2022-10-02T07:38:49.846Z,90.46
2022-10-02T07:39:35.935Z,90.24
2022-10-02T07:40:24.651Z,90.08
2022-10-02T07:41:17.023Z,90.46
2022-10-02T07:42:12.199Z,90.54
2022-10-02T07:43:10.243Z,90.57
2022-10-02T07:43:50.633Z,90.93
2022-10-02T07:44:33.006Z,90.80
2022-10-02T07:45:27.041Z,90.92
2022-10-02T07:46:16.205Z,90.82
2022-10-02T07:46:57.643Z,90.64
2022-10-02T07:47:46.412Z,90.86
2022-10-02T07:48:35.193Z,90.68
2022-10-02T07:49:20.653Z,90.63
2022-10-02T07:49:59.826Z,91.02
2022-10-02T07:50:42.668Z,91.10
2022-10-02T07:51:45.144Z,90.84
2022-10-02T07:52:27.958Z,90.79
2022-10-02T07:53:08.474Z,90.85
2022-10-02T07:53:49.857Z,91.18
2022-10-02T07:54:50.698Z,90.88
2022-10-02T07:55:24.042Z,90.88
2022-10-02T07:55:57.209Z,90.88
2022-10-02T07:56:33.489Z,91.21
2022-10-02T07:57:23.930Z,91.16
2022-10-02T07:58:06.026Z,91.23
2022-10-02T07:58:43.298Z,90.91
2022-10-02T07:59:17.714Z,91.36
2022-10-02T07:59:57.748Z,90.93
2022-10-02T08:00:34.486Z,91.25
2022-10-02T08:01:15.408Z,91.25
2022-10-02T08:01:50.483Z,90.83
2022-10-02T08:02:30.370Z,91.51
2022-10-02T08:03:10.764Z,91.09
2022-10-02T08:03:49.759Z,91.16
2022-10-02T08:04:36.818Z,91.30
2022-10-02T08:05:18.630Z,91.53
2022-10-02T08:05:56.409Z,91.67
2022-10-02T08:06:29.098Z,91.56
2022-10-02T08:07:03.010Z,91.32
2022-10-02T08:07:37.934Z,91.96
2022-10-02T08:08:18.483Z,91.85
2022-10-02T08:08:57.921Z,91.99
2022-10-02T08:09:35.419Z,91.89
2022-10-02T08:10:16.500Z,91.82
2022-10-02T08:10:53.812Z,91.86
2022-10-02T08:11:30.855Z,92.38
2022-10-02T08:12:14.654Z,92.22
2022-10-02T08:12:55.295Z,92.12
2022-10-02T08:13:34.950Z,92.27
2022-10-02T08:14:12.327Z,92.02
2022-10-02T08:14:46.630Z,92.20
2022-10-02T08:15:23.908Z,92.45
2022-10-02T08:15:56.563Z,92.17
2022-10-02T08:16:33.722Z,92.33
2022-10-02T08:17:14.459Z,91.84
2022-10-02T08:17:50.368Z,92.25
2022-10-02T08:18:35.288Z,92.07
2022-10-02T08:19:16.810Z,92.20
2022-10-02T08:19:51.778Z,91.76
2022-10-02T08:20:31.936Z,92.09
2022-10-02T08:21:08.916Z,91.91
2022-10-02T08:21:48.592Z,92.57
2022-10-02T08:22:26.129Z,92.91
2022-10-02T08:23:07.560Z,92.92
2022-10-02T08:23:44.095Z,92.79
2022-10-02T08:24:23.458Z,92.82
2022-10-02T08:24:59.078Z,93.30
2022-10-02T08:25:41.838Z,92.89
2022-10-02T08:26:19.403Z,93.19
2022-10-02T08:26:58.029Z,93.48
2022-10-02T08:27:53.943Z,93.18
2022-10-02T08:28:31.544Z,93.21
2022-10-02T08:29:12.221Z,93.37
2022-10-02T08:29:49.944Z,93.47
2022-10-02T08:30:22.139Z,93.34
2022-10-02T08:30:56.825Z,93.37
2022-10-02T08:31:30.056Z,93.21
2022-10-02T08:32:04.983Z,93.09
2022-10-02T08:32:37.497Z,93.71
2022-10-02T08:33:15.807Z,93.48
2022-10-02T08:33:50.458Z,93.82
2022-10-02T08:34:25.778Z,93.43
2022-10-02T08:34:58.242Z,93.36
2022-10-02T08:35:44.201Z,93.62
2022-10-02T08:37:01.466Z,93.76
2022-10-02T08:37:45.262Z,93.99
2022-10-02T08:38:35.456Z,93.70
2022-10-02T08:39:24.084Z,93.76
2022-10-02T08:40:38.520Z,93.97
2022-10-02T08:41:55.570Z,93.63
2022-10-02T08:42:57.562Z,93.77
2022-10-02T08:44:03.044Z,93.37
2022-10-02T08:45:09.004Z,94.04
2022-10-02T08:46:10.848Z,93.98
2022-10-02T08:47:10.053Z,93.73
2022-10-02T08:48:22.704Z,93.29
2022-10-02T08:49:33.820Z,93.15
2022-10-02T08:50:50.827Z,93.22
2022-10-02T08:51:53.277Z,93.41
2022-10-02T08:53:03.907Z,93.52
2022-10-02T08:54:29.156Z,92.77
2022-10-02T08:55:26.346Z,92.21
2022-10-02T08:56:20.662Z,92.38
2022-10-02T08:57:31.267Z,92.61
2022-10-02T08:58:44.037Z,92.60
2022-10-02T08:59:58.955Z,91.98
2022-10-02T09:00:45.932Z,92.59
2022-10-02T09:01:43.348Z,92.61
2022-10-02T09:02:46.155Z,92.74
2022-10-02T09:04:01.069Z,92.57
2022-10-02T09:05:12.303Z,92.49
2022-10-02T09:06:22.710Z,92.90
2022-10-02T09:07:30.959Z,92.39
2022-10-02T09:08:45.185Z,92.73
2022-10-02T09:10:01.617Z,92.52